Time;durP1;ratioP1;P1;durP2;ratioP2;P2;SDS_P1;SDS_P2;PMS_P1;PMS_P2;Temp;Humidity;BMP_temperature;BMP_pressure;BME280_temperature;BME280_humidity;BME280_pressure;Samples;Min_cycle;Max_cycle;Signal;HPM_P1;HPM_P2
2022/04/02 00:00:57;;;;;;;0.10;0.10;;;;;;;4.37;67.11;100751.38;5046052;28;20032;-71
2022/04/02 00:03:23;;;;;;;0.10;0.10;;;;;;;4.31;67.98;100755.25;5051151;28;20071;-71
2022/04/02 00:05:49;;;;;;;0.10;0.10;;;;;;;4.28;68.12;100753.19;5050821;28;20037;-71
2022/04/02 00:08:14;;;;;;;0.10;0.10;;;;;;;4.21;68.17;100747.56;5050786;28;20117;-71
2022/04/02 00:10:40;;;;;;;0.20;0.20;;;;;;;4.20;68.47;100756.66;5030632;28;20144;-71
2022/04/02 00:13:05;;;;;;;0.10;0.10;;;;;;;4.11;68.69;100750.50;5029624;28;20045;-71
2022/04/02 00:15:31;;;;;;;0.10;0.10;;;;;;;4.17;68.25;100750.06;5031375;28;20398;-71
2022/04/02 00:17:56;;;;;;;0.10;0.10;;;;;;;4.22;67.95;100752.56;5046834;28;20064;-71
2022/04/02 00:20:22;;;;;;;0.10;0.10;;;;;;;4.16;68.32;100743.13;5043177;28;20037;-71
2022/04/02 00:25:32;;;;;;;0.10;0.10;;;;;;;4.09;68.94;100742.81;5045378;28;20037;-71
2022/04/02 00:27:57;;;;;;;0.10;0.10;;;;;;;4.02;69.47;100747.03;5045982;28;20043;-71
2022/04/02 00:30:24;;;;;;;0.32;0.28;;;;;;;4.03;69.15;100746.72;5028398;28;20041;-71
2022/04/02 00:32:49;;;;;;;0.08;0.08;;;;;;;4.09;68.59;100739.34;5032172;28;20378;-71
2022/04/02 00:35:15;;;;;;;0.10;0.10;;;;;;;3.97;69.37;100744.50;5014405;28;20412;-71
2022/04/02 00:37:41;;;;;;;0.10;0.10;;;;;;;4.04;68.96;100747.50;5022556;28;20033;-71
2022/04/02 00:40:07;;;;;;;0.13;0.13;;;;;;;3.99;69.06;100742.34;5028938;28;20089;-71
2022/04/02 00:42:33;;;;;;;0.10;0.10;;;;;;;4.07;68.57;100741.56;5012371;28;20086;-71
2022/04/02 00:44:58;;;;;;;0.10;0.10;;;;;;;4.18;68.18;100748.19;5033930;28;20025;-71
2022/04/02 00:47:24;;;;;;;0.30;0.30;;;;;;;4.10;68.42;100749.72;5026938;28;20857;-71
2022/04/02 00:49:54;;;;;;;0.10;0.10;;;;;;;4.01;69.06;100740.91;5048326;28;20112;-70
2022/04/02 00:52:21;;;;;;;0.10;0.10;;;;;;;4.01;69.18;100764.09;5045214;28;20037;-70
2022/04/02 00:54:49;;;;;;;0.10;0.10;;;;;;;3.92;70.21;100766.72;5048394;28;20045;-70
2022/04/02 00:57:15;;;;;;;0.10;0.10;;;;;;;3.93;69.78;100762.97;5040843;28;20024;-70
2022/04/02 00:59:41;;;;;;;0.20;0.20;;;;;;;3.89;70.36;100762.00;5032189;28;20032;-71
2022/04/02 01:02:06;;;;;;;0.20;0.20;;;;;;;3.87;70.96;100764.19;5026010;28;20394;-71
2022/04/02 01:04:32;;;;;;;0.10;0.10;;;;;;;3.87;70.91;100763.44;5030899;28;20051;-71
2022/04/02 01:06:59;;;;;;;0.10;0.10;;;;;;;3.86;71.04;100759.19;5039760;28;20025;-71
2022/04/02 01:09:30;;;;;;;0.10;0.10;;;;;;;3.78;70.87;100759.91;5032415;28;20044;-71
2022/04/02 01:11:56;;;;;;;0.17;0.17;;;;;;;3.83;71.06;100768.59;5025376;28;20033;-71
2022/04/02 01:14:22;;;;;;;0.20;0.20;;;;;;;3.84;71.39;100764.81;5042229;28;20488;-71
2022/04/02 01:16:52;;;;;;;0.10;0.10;;;;;;;3.84;71.75;100762.16;5015823;28;20091;-71
2022/04/02 01:19:21;;;;;;;0.10;0.10;;;;;;;3.80;72.18;100771.84;5030835;28;20052;-71
2022/04/02 01:21:53;;;;;;;0.10;0.10;;;;;;;3.80;72.38;100771.06;5029886;28;20032;-71
2022/04/02 01:24:37;;;;;;;0.10;0.10;;;;;;;3.93;70.92;100770.94;5031766;28;20032;-70
2022/04/02 01:27:04;;;;;;;0.20;0.20;;;;;;;3.92;71.25;100773.94;5031782;28;20036;-70
2022/04/02 01:29:33;;;;;;;0.10;0.10;;;;;;;3.90;71.95;100774.25;5027492;28;20028;-70
2022/04/02 01:32:00;;;;;;;0.10;0.10;;;;;;;3.87;72.41;100772.19;5038452;28;20418;-70
2022/04/02 01:34:31;;;;;;;0.10;0.10;;;;;;;3.91;72.35;100767.81;5020196;28;20547;-70
2022/04/02 01:37:01;;;;;;;0.10;0.10;;;;;;;3.93;72.01;100775.53;5014042;28;20033;-70
2022/04/02 01:39:33;;;;;;;0.10;0.10;;;;;;;3.94;72.29;100769.09;5032522;28;20226;-70
2022/04/02 01:42:05;;;;;;;0.10;0.10;;;;;;;3.93;72.60;100780.84;5039060;28;20105;-70
2022/04/02 01:44:35;;;;;;;0.10;0.10;;;;;;;3.95;72.24;100776.00;5031888;28;20029;-70
2022/04/02 01:47:00;;;;;;;0.20;0.20;;;;;;;3.94;72.57;100767.22;5032997;28;20531;-70
2022/04/02 01:49:27;;;;;;;0.10;0.10;;;;;;;3.87;73.31;100776.75;5028560;28;20038;-70
2022/04/02 01:51:54;;;;;;;0.10;0.10;;;;;;;3.86;73.45;100769.84;5024677;28;20043;-70
2022/04/02 01:54:20;;;;;;;0.13;0.13;;;;;;;3.91;72.91;100775.03;5031725;28;20493;-70
2022/04/02 01:56:49;;;;;;;0.10;0.10;;;;;;;3.89;73.48;100774.56;5018471;28;20528;-70
2022/04/02 01:59:17;;;;;;;0.10;0.10;;;;;;;3.90;72.96;100773.44;5036982;28;20040;-70
2022/04/02 02:01:43;;;;;;;0.10;0.10;;;;;;;3.98;72.49;100770.84;5041016;28;20028;-70
2022/04/02 02:04:09;;;;;;;0.10;0.10;;;;;;;4.11;71.94;100771.81;5053409;28;20033;-70
2022/04/02 02:06:38;;;;;;;0.10;0.10;;;;;;;4.08;72.31;100775.09;5034906;28;20040;-70
2022/04/02 02:09:08;;;;;;;0.10;0.10;;;;;;;4.02;72.54;100782.44;5014502;28;20110;-71
2022/04/02 02:11:43;;;;;;;0.50;0.30;;;;;;;3.98;73.35;100773.50;5026660;28;20171;-71
2022/04/02 02:14:20;;;;;;;0.10;0.10;;;;;;;3.95;74.24;100768.00;5052789;28;20106;-71
2022/04/02 02:16:53;;;;;;;0.10;0.10;;;;;;;3.91;74.10;100762.47;5033283;28;20452;-71
2022/04/02 02:19:18;;;;;;;0.10;0.10;;;;;;;3.93;74.03;100762.97;5052623;28;20040;-71
2022/04/02 02:21:44;;;;;;;0.10;0.10;;;;;;;3.98;73.59;100773.50;5046193;28;20040;-70
2022/04/02 02:24:15;;;;;;;0.15;0.15;;;;;;;3.90;74.20;100773.44;5051815;28;20026;-71
2022/04/02 02:26:41;;;;;;;0.20;0.20;;;;;;;3.88;75.17;100772.97;5041333;28;20040;-71
2022/04/02 02:29:06;;;;;;;0.20;0.20;;;;;;;3.86;75.40;100788.47;5028621;28;20497;-71
2022/04/02 02:31:35;;;;;;;0.10;0.10;;;;;;;3.87;75.69;100780.16;5042071;28;20033;-71
2022/04/02 02:36:57;;;;;;;0.20;0.20;;;;;;;3.86;76.48;100780.47;5033511;28;20437;-71
2022/04/02 02:39:22;;;;;;;0.13;0.13;;;;;;;3.83;76.69;100773.91;5040435;28;20660;-71
2022/04/02 02:42:05;;;;;;;0.10;0.10;;;;;;;3.78;77.11;100775.91;5012652;28;20039;-71
2022/04/02 02:44:38;;;;;;;0.10;0.10;;;;;;;3.75;77.61;100772.00;5034070;28;20397;-71
2022/04/02 02:47:17;;;;;;;0.35;0.35;;;;;;;3.90;76.89;100776.13;5030306;28;20036;-71
2022/04/02 02:49:44;;;;;;;0.10;0.10;;;;;;;3.85;77.21;100784.25;5034166;28;20035;-70
2022/04/02 02:52:15;;;;;;;0.20;0.20;;;;;;;3.95;76.74;100784.75;5030050;28;20036;-71
2022/04/02 02:54:40;;;;;;;0.20;0.20;;;;;;;3.83;77.86;100778.44;5051294;28;20037;-71
2022/04/02 02:57:07;;;;;;;0.10;0.10;;;;;;;3.81;78.53;100785.94;5033165;28;20037;-71
2022/04/02 02:59:34;;;;;;;0.10;0.10;;;;;;;3.89;78.25;100790.53;5047405;28;20397;-71
2022/04/02 03:02:00;;;;;;;0.17;0.17;;;;;;;3.79;79.20;100782.81;5033732;28;20485;-71
2022/04/02 03:04:25;;;;;;;0.20;0.20;;;;;;;3.79;80.10;100788.94;5033564;28;20028;-71
2022/04/02 03:06:57;;;;;;;0.10;0.10;;;;;;;3.76;80.90;100794.06;5049715;28;20037;-71
2022/04/02 03:09:26;;;;;;;0.10;0.10;;;;;;;3.97;80.07;100790.56;5030141;28;20029;-70
2022/04/02 03:11:52;;;;;;;0.10;0.10;;;;;;;3.89;80.89;100787.88;5051009;28;20036;-70
2022/04/02 03:14:19;;;;;;;0.10;0.10;;;;;;;3.97;80.12;100784.47;5042763;28;20068;-70
2022/04/02 03:16:44;;;;;;;0.10;0.10;;;;;;;3.94;80.59;100783.19;5035421;28;20489;-70
2022/04/02 03:19:14;;;;;;;0.10;0.10;;;;;;;3.87;81.63;100780.16;5020329;28;20493;-70
2022/04/02 03:21:40;;;;;;;0.38;0.38;;;;;;;4.00;80.61;100789.16;5033250;28;20036;-70
2022/04/02 03:24:06;;;;;;;0.28;0.28;;;;;;;3.93;81.24;100791.50;5033970;28;20028;-70
2022/04/02 03:26:35;;;;;;;0.10;0.10;;;;;;;3.87;81.84;100779.41;5029509;28;20029;-70
2022/04/02 03:29:06;;;;;;;;;;;;;;;4.11;80.46;100787.78;5033426;28;20040;-70
2022/04/02 03:31:32;;;;;;;0.10;0.10;;;;;;;3.96;81.23;100789.00;5041306;28;19913;-70
2022/04/02 03:33:58;;;;;;;0.20;0.20;;;;;;;3.89;81.69;100788.63;5028097;28;20032;-70
2022/04/02 03:36:24;;;;;;;0.15;0.15;;;;;;;3.86;81.77;100786.59;5014326;28;20042;-71
2022/04/02 03:38:49;;;;;;;0.10;0.10;;;;;;;3.83;82.51;100792.56;5029427;28;20032;-71
2022/04/02 03:41:16;;;;;;;0.10;0.10;;;;;;;3.82;82.11;100793.63;5034825;28;20170;-71
2022/04/02 03:43:46;;;;;;;0.10;0.10;;;;;;;3.95;81.88;100799.97;5029689;28;20053;-70
2022/04/02 03:48:58;;;;;;;0.10;0.10;;;;;;;3.83;82.42;100797.88;5033527;28;20119;-71
2022/04/02 03:51:24;;;;;;;0.28;0.20;;;;;;;3.94;82.31;100801.84;5032273;28;20162;-71
2022/04/02 03:53:50;;;;;;;0.10;0.10;;;;;;;3.97;81.57;100805.78;5015094;28;20086;-71
2022/04/02 03:56:18;;;;;;;0.10;0.10;;;;;;;3.81;82.53;100805.38;5043512;28;20444;-71
2022/04/02 03:58:51;;;;;;;0.10;0.10;;;;;;;3.78;82.85;100802.53;5046990;22;20037;-71
2022/04/02 04:01:17;;;;;;;0.10;0.10;;;;;;;3.86;82.70;100809.78;5039742;28;20555;-70
2022/04/02 04:03:44;;;;;;;0.20;0.20;;;;;;;3.82;82.39;100806.16;5032902;28;20025;-70
2022/04/02 04:06:10;;;;;;;0.10;0.10;;;;;;;3.84;82.08;100803.97;5033012;28;20025;-70
2022/04/02 04:08:37;;;;;;;0.20;0.20;;;;;;;3.80;82.22;100806.47;5029975;28;20092;-70
2022/04/02 04:11:03;;;;;;;0.10;0.10;;;;;;;3.74;82.65;100812.22;5013980;28;20040;-70
2022/04/02 04:13:29;;;;;;;0.10;0.10;;;;;;;3.79;82.17;100809.44;5012774;28;20061;-70
2022/04/02 04:16:00;;;;;;;0.10;0.10;;;;;;;3.85;81.89;100808.22;5032188;28;20098;-70
2022/04/02 04:18:27;;;;;;;0.20;0.20;;;;;;;3.77;82.17;100814.28;5032251;28;20036;-70
2022/04/02 04:20:52;;;;;;;0.10;0.10;;;;;;;3.66;82.59;100816.41;5050499;28;20029;-70
2022/04/02 04:23:22;;;;;;;0.10;0.10;;;;;;;3.85;81.75;100818.88;5029009;28;20021;-70
2022/04/02 04:25:48;;;;;;;0.25;0.25;;;;;;;3.79;81.53;100822.75;5025646;28;20025;-70
2022/04/02 04:28:14;;;;;;;0.10;0.10;;;;;;;3.73;81.51;100832.75;5031496;28;20590;-70
2022/04/02 04:30:43;;;;;;;0.10;0.10;;;;;;;3.63;82.45;100827.66;5030891;28;20431;-70
2022/04/02 04:33:09;;;;;;;0.20;0.20;;;;;;;3.54;82.76;100830.25;5036361;28;20033;-70
2022/04/02 04:35:34;;;;;;;0.22;0.22;;;;;;;3.53;82.73;100839.34;5030694;28;20465;-70
2022/04/02 04:38:00;;;;;;;0.10;0.10;;;;;;;3.55;82.78;100837.16;5029442;28;20125;-70
2022/04/02 04:40:28;;;;;;;0.10;0.10;;;;;;;3.69;81.91;100845.09;5042937;28;20116;-70
2022/04/02 04:42:54;;;;;;;0.10;0.10;;;;;;;3.57;82.09;100845.66;5030767;28;20125;-70
2022/04/02 04:45:28;;;;;;;0.10;0.10;;;;;;;3.70;81.63;100853.88;5021429;28;20033;-70
2022/04/02 04:47:54;;;;;;;0.10;0.10;;;;;;;3.73;81.06;100850.59;5019241;28;20034;-70
2022/04/02 04:50:22;;;;;;;0.25;0.20;;;;;;;3.58;81.45;100855.19;5022151;28;20436;-70
2022/04/02 04:52:52;;;;;;;0.10;0.10;;;;;;;3.46;82.23;100859.50;5020115;28;20037;-70
2022/04/02 04:55:18;;;;;;;0.08;0.08;;;;;;;3.49;81.87;100858.88;5024611;28;20033;-70
2022/04/02 04:57:44;;;;;;;0.10;0.10;;;;;;;3.40;81.97;100861.50;5022414;28;20029;-70
2022/04/02 05:00:16;;;;;;;;;;;;;;;3.47;81.80;100867.16;5018149;28;20054;-70
2022/04/02 05:02:44;;;;;;;0.20;0.20;;;;;;;3.41;81.94;100872.91;5043543;28;20266;-70
2022/04/02 05:05:14;;;;;;;0.10;0.10;;;;;;;3.40;82.32;100874.81;5032156;28;20440;-70
2022/04/02 05:07:42;;;;;;;0.17;0.17;;;;;;;3.33;82.28;100879.72;5031076;28;20451;-70
2022/04/02 05:10:10;;;;;;;0.10;0.10;;;;;;;3.28;82.31;100874.53;5027992;28;20083;-70
2022/04/02 05:12:38;;;;;;;0.20;0.20;;;;;;;3.30;82.63;100882.22;5027942;28;20631;-70
2022/04/02 05:15:08;;;;;;;0.30;0.30;;;;;;;3.28;82.76;100879.84;5026570;28;20025;-70
2022/04/02 05:17:35;;;;;;;0.10;0.10;;;;;;;3.34;82.36;100880.53;5039562;28;20040;-70
2022/04/02 05:20:11;;;;;;;0.10;0.10;;;;;;;3.42;81.51;100880.59;5027827;28;20507;-70
2022/04/02 05:22:37;;;;;;;0.13;0.13;;;;;;;3.38;81.91;100878.84;5026980;28;20552;-70
2022/04/02 05:25:04;;;;;;;0.10;0.10;;;;;;;3.39;82.05;100888.38;5033937;28;20033;-70
2022/04/02 05:27:32;;;;;;;0.20;0.20;;;;;;;3.41;81.91;100881.69;5043703;28;20091;-70
2022/04/02 05:29:58;;;;;;;0.20;0.20;;;;;;;3.36;82.08;100889.78;5034416;28;20036;-70
2022/04/02 05:32:24;;;;;;;0.10;0.10;;;;;;;3.49;81.27;100896.13;5036450;28;20033;-70
2022/04/02 05:34:50;;;;;;;0.10;0.10;;;;;;;3.51;81.30;100889.44;5036203;28;20028;-70
2022/04/02 05:37:15;;;;;;;0.15;0.15;;;;;;;3.49;81.13;100894.28;5030802;28;20029;-70
2022/04/02 05:39:41;;;;;;;0.10;0.10;;;;;;;3.54;80.84;100896.03;5030230;28;20029;-70
2022/04/02 05:42:07;;;;;;;0.10;0.10;;;;;;;3.54;81.07;100906.69;5044746;28;20037;-70
2022/04/02 05:44:33;;;;;;;0.10;0.10;;;;;;;3.54;80.36;100896.03;5051944;28;20036;-70
2022/04/02 05:46:58;;;;;;;0.30;0.30;;;;;;;3.71;79.52;100906.81;5028124;28;20075;-70
2022/04/02 05:49:24;;;;;;;0.10;0.10;;;;;;;3.79;78.73;100915.94;5049674;28;20528;-70
2022/04/02 05:51:49;;;;;;;0.10;0.10;;;;;;;3.74;78.76;100918.72;5050869;28;20036;-70
2022/04/02 05:54:15;;;;;;;0.10;0.10;;;;;;;3.68;78.33;100924.16;5048865;28;20028;-70
2022/04/02 05:56:41;;;;;;;0.10;0.10;;;;;;;3.80;76.79;100923.63;5050778;28;20029;-70
2022/04/02 05:59:07;;;;;;;0.15;0.15;;;;;;;3.84;77.26;100927.25;5052013;28;20397;-70
2022/04/02 06:01:34;;;;;;;0.40;0.40;;;;;;;3.92;76.92;100921.22;5051294;28;20037;-70
2022/04/02 06:04:00;;;;;;;0.10;0.10;;;;;;;3.85;76.62;100926.19;5050248;28;20485;-70
2022/04/02 06:06:25;;;;;;;0.20;0.20;;;;;;;3.93;76.15;100935.31;5050996;28;20032;-70
2022/04/02 06:08:51;;;;;;;0.10;0.10;;;;;;;4.06;75.17;100935.25;5051267;28;20033;-70
2022/04/02 06:11:16;;;;;;;0.10;0.10;;;;;;;4.08;74.55;100940.28;5048093;28;20033;-70
2022/04/02 06:13:42;;;;;;;0.10;0.10;;;;;;;4.04;74.45;100940.09;5051473;28;20039;-70
2022/04/02 06:16:10;;;;;;;0.10;0.10;;;;;;;4.11;73.93;100945.78;5033029;28;20032;-70
2022/04/02 06:18:36;;;;;;;0.10;0.10;;;;;;;4.22;73.42;100946.34;5031466;28;20052;-70
2022/04/02 06:21:03;;;;;;;0.10;0.10;;;;;;;4.32;72.81;100951.38;5033196;28;20041;-70
2022/04/02 06:23:29;;;;;;;0.10;0.10;;;;;;;4.23;72.87;100955.88;5030027;28;20028;-70
2022/04/02 06:25:55;;;;;;;0.10;0.10;;;;;;;4.25;73.50;100961.69;5050640;28;20098;-70
2022/04/02 06:28:20;;;;;;;0.10;0.10;;;;;;;4.33;72.76;100961.75;5048406;28;20041;-70
2022/04/02 06:30:46;;;;;;;0.10;0.10;;;;;;;4.43;72.01;100960.72;5049417;28;20032;-70
2022/04/02 06:33:11;;;;;;;0.20;0.20;;;;;;;4.40;71.88;100955.97;5049020;28;20151;-70
2022/04/02 06:35:37;;;;;;;0.10;0.10;;;;;;;4.50;71.22;100966.38;5032967;28;20037;-70
2022/04/02 06:38:03;;;;;;;0.10;0.10;;;;;;;4.56;71.58;100963.28;5043907;28;20044;-70
2022/04/02 06:40:28;;;;;;;0.20;0.20;;;;;;;4.69;71.00;100969.63;5047690;28;20052;-70
2022/04/02 06:42:56;;;;;;;0.10;0.10;;;;;;;4.76;70.34;100982.50;5050462;28;20033;-70
2022/04/02 06:45:55;;;;;;;0.20;0.20;;;;;;;4.80;70.28;100970.91;5044878;28;20103;-70
2022/04/02 06:48:21;;;;;;;0.32;0.32;;;;;;;4.87;69.79;100971.25;5048686;28;20069;-70
2022/04/02 06:50:47;;;;;;;0.10;0.10;;;;;;;5.11;67.89;100976.22;5048475;28;20037;-70
2022/04/02 06:53:12;;;;;;;0.10;0.10;;;;;;;5.12;69.16;100978.56;5036207;28;20032;-70
2022/04/02 06:55:38;;;;;;;0.10;0.10;;;;;;;5.42;67.71;100980.34;5049527;28;20428;-70
2022/04/02 06:58:04;;;;;;;0.10;0.10;;;;;;;5.33;68.23;100990.22;5024862;28;20692;-70
2022/04/02 07:00:29;;;;;;;0.15;0.15;;;;;;;5.37;67.46;100993.84;5047657;28;20029;-70
2022/04/02 07:02:55;;;;;;;0.10;0.10;;;;;;;5.75;65.60;100991.38;5041022;28;20040;-70
2022/04/02 07:05:22;;;;;;;0.10;0.10;;;;;;;5.80;65.79;100987.78;5045319;28;20133;-70
2022/04/02 07:07:49;;;;;;;0.22;0.22;;;;;;;5.85;65.85;100987.63;5050569;28;20631;-70
2022/04/02 07:10:15;;;;;;;0.10;0.10;;;;;;;5.81;65.81;100997.34;5047866;28;20043;-70
2022/04/02 07:12:40;;;;;;;0.10;0.10;;;;;;;6.14;63.32;101007.28;5047889;28;20032;-70
2022/04/02 07:15:08;;;;;;;0.10;0.10;;;;;;;6.24;63.20;101001.63;5045803;28;20043;-70
2022/04/02 07:17:34;;;;;;;0.10;0.10;;;;;;;6.19;62.83;101004.44;5046636;28;21023;-70
2022/04/02 07:20:03;;;;;;;0.10;0.10;;;;;;;6.17;63.92;101000.53;5052175;28;20065;-70
2022/04/02 07:22:28;;;;;;;0.10;0.10;;;;;;;6.32;63.18;100994.69;5045481;28;20056;-70
2022/04/02 07:24:55;;;;;;;0.10;0.10;;;;;;;6.49;61.70;101002.66;5051131;28;20647;-70
2022/04/02 07:27:23;;;;;;;0.10;0.10;;;;;;;6.58;62.10;101011.44;5049008;28;20044;-70
2022/04/02 07:29:57;;;;;;;0.10;0.10;;;;;;;6.62;61.58;101008.94;5047419;28;20032;-70
2022/04/02 07:32:23;;;;;;;0.10;0.10;;;;;;;6.57;61.02;100999.19;5044845;28;20120;-70
2022/04/02 07:34:49;;;;;;;1.48;0.73;;;;;;;6.92;60.22;101013.25;5046930;28;20120;-70
2022/04/02 07:37:16;;;;;;;0.15;0.15;;;;;;;6.94;59.67;101008.34;5049325;28;20048;-70
2022/04/02 07:39:53;;;;;;;0.00;0.00;;;;;;;6.91;59.35;101015.13;5027751;28;20509;-70
2022/04/02 07:42:32;;;;;;;0.20;0.20;;;;;;;6.86;59.99;101017.19;5030538;28;20052;-70
2022/04/02 07:45:03;;;;;;;0.10;0.10;;;;;;;7.12;59.44;101018.66;5030449;28;20033;-70
2022/04/02 07:47:31;;;;;;;0.10;0.10;;;;;;;7.21;59.26;101023.97;5048922;28;20389;-70
2022/04/02 07:50:04;;;;;;;0.10;0.10;;;;;;;7.35;58.47;101032.59;5046490;28;20452;-70
2022/04/02 07:52:31;;;;;;;0.10;0.10;;;;;;;7.47;57.09;101026.53;5029019;28;20086;-70
2022/04/02 07:54:58;;;;;;;0.10;0.10;;;;;;;7.44;57.67;101027.16;5045164;28;20025;-70
2022/04/02 07:57:27;;;;;;;0.10;0.10;;;;;;;7.49;57.01;101027.00;5045574;28;20036;-70
2022/04/02 08:00:00;;;;;;;0.10;0.10;;;;;;;7.79;56.04;101033.88;5032047;28;20075;-70
2022/04/02 08:02:39;;;;;;;0.40;0.40;;;;;;;7.94;55.58;101042.13;5023533;28;20068;-70
2022/04/02 08:05:07;;;;;;;0.10;0.10;;;;;;;7.92;55.06;101027.47;5049265;28;20064;-69
2022/04/02 08:07:37;;;;;;;0.08;0.08;;;;;;;8.02;55.13;101021.72;5045090;28;20107;-70
2022/04/02 08:10:06;;;;;;;0.10;0.10;;;;;;;8.21;53.78;101048.84;5033122;28;20445;-70
2022/04/02 08:12:35;;;;;;;0.10;0.10;;;;;;;8.18;53.95;101036.09;5032600;28;20056;-70
2022/04/02 08:15:03;;;;;;;0.10;0.10;;;;;;;8.31;53.99;101034.25;5047649;28;20040;-70
2022/04/02 08:17:30;;;;;;;0.10;0.10;;;;;;;8.71;54.33;101036.06;5048385;28;20033;-70
2022/04/02 08:19:59;;;;;;;0.00;0.00;;;;;;;8.76;53.56;101040.44;5029466;28;20465;-71
2022/04/02 08:22:27;;;;;;;0.10;0.10;;;;;;;8.89;52.11;101042.03;5023236;28;20033;-70
2022/04/02 08:24:53;;;;;;;0.10;0.10;;;;;;;9.10;51.39;101040.84;5018701;28;20167;-70
2022/04/02 08:27:28;;;;;;;0.10;0.10;;;;;;;9.28;51.26;101045.97;5029675;28;20668;-70
2022/04/02 08:30:11;;;;;;;0.38;0.38;;;;;;;9.27;50.78;101039.06;5028018;28;20095;-70
2022/04/02 08:32:57;;;;;;;0.17;0.17;;;;;;;9.32;50.42;101042.31;5043171;28;20032;-70
2022/04/02 08:36:04;;;;;;;0.10;0.10;;;;;;;9.36;49.96;101047.78;5046472;28;20504;-72
2022/04/02 08:38:54;;;;;;;0.10;0.10;;;;;;;9.28;49.91;101062.09;5047675;28;20037;-71
2022/04/02 08:41:41;;;;;;;0.10;0.10;;;;;;;9.19;48.17;101056.84;5044525;28;20098;-70
2022/04/02 08:44:37;;;;;;;0.10;0.10;;;;;;;9.17;47.70;101058.31;5029671;28;20513;-70
2022/04/02 08:47:33;;;;;;;0.10;0.10;;;;;;;9.32;49.60;101061.13;5029724;28;20052;-70
2022/04/02 08:50:14;;;;;;;0.10;0.10;;;;;;;9.36;46.37;101066.59;5021035;28;20029;-69
2022/04/02 08:52:51;;;;;;;0.10;0.10;;;;;;;9.25;47.56;101062.78;5049045;28;20051;-70
2022/04/02 08:55:41;;;;;;;0.10;0.10;;;;;;;9.13;48.16;101066.25;5048607;28;20064;-70
2022/04/02 08:58:10;;;;;;;0.10;0.10;;;;;;;9.47;48.39;101065.03;5045357;28;20136;-70
2022/04/02 09:00:42;;;;;;;0.43;0.20;;;;;;;9.65;48.18;101064.47;5052772;28;20036;-70
2022/04/02 09:03:22;;;;;;;;;;;;;;;9.58;47.39;101083.03;5048494;28;20017;-71
2022/04/02 09:05:48;;;;;;;0.10;0.10;;;;;;;9.72;44.43;101078.13;5051693;28;19919;-70
2022/04/02 09:08:35;;;;;;;0.20;0.20;;;;;;;9.73;41.87;101076.22;5044427;28;20553;-70
2022/04/02 09:11:12;;;;;;;0.10;0.10;;;;;;;9.69;41.63;101078.00;5049904;28;20035;-70
2022/04/02 09:14:12;;;;;;;0.10;0.10;;;;;;;10.01;43.07;101068.97;5039901;28;20033;-70
2022/04/02 09:17:11;;;;;;;0.10;0.10;;;;;;;10.51;43.14;101076.59;5023103;28;20033;-70
2022/04/02 09:20:00;;;;;;;0.10;0.10;;;;;;;10.78;44.60;101087.31;5050821;28;20462;-70
2022/04/02 09:22:55;;;;;;;0.10;0.10;;;;;;;11.04;43.97;101078.75;5048250;28;20033;-70
2022/04/02 09:25:43;;;;;;;0.10;0.10;;;;;;;11.36;43.51;101080.31;5051267;28;20037;-70
2022/04/02 09:28:26;;;;;;;0.10;0.10;;;;;;;11.43;43.05;101075.09;5049559;28;20048;-70
2022/04/02 09:31:18;;;;;;;0.10;0.10;;;;;;;11.66;42.13;101091.44;5050104;28;20048;-70
2022/04/02 09:34:02;;;;;;;0.10;0.10;;;;;;;11.67;39.83;101091.09;5047336;28;20037;-69
2022/04/02 09:36:38;;;;;;;0.20;0.20;;;;;;;11.15;38.43;101085.19;5054025;28;20112;-70
2022/04/02 09:39:19;;;;;;;0.10;0.10;;;;;;;11.51;38.78;101087.63;5046926;28;20927;-70
2022/04/02 09:42:09;;;;;;;0.10;0.10;;;;;;;11.67;39.02;101093.03;5058413;28;20045;-71
2022/04/02 09:44:59;;;;;;;0.20;0.20;;;;;;;11.51;39.45;101092.22;5044715;28;20037;-70
2022/04/02 09:47:27;;;;;;;0.08;0.08;;;;;;;11.17;38.77;101093.72;5042141;28;20115;-70
2022/04/02 09:50:08;;;;;;;0.30;0.30;;;;;;;11.42;37.45;101088.94;5054266;28;20036;-70
2022/04/02 09:52:43;;;;;;;0.10;0.10;;;;;;;11.53;37.80;101085.38;5051778;28;20044;-70
2022/04/02 09:55:20;;;;;;;0.10;0.10;;;;;;;11.31;37.23;101087.88;5052565;28;20481;-70
2022/04/02 09:57:45;;;;;;;0.10;0.10;;;;;;;11.67;37.68;101088.41;5052093;28;20532;-70
2022/04/02 10:00:13;;;;;;;0.00;0.00;;;;;;;11.64;38.36;101091.00;5049394;22;20142;-68
2022/04/02 10:03:00;;;;;;;0.00;0.00;;;;;;;11.97;37.53;101087.91;5015247;28;20048;-70
2022/04/02 10:06:15;;;;;;;0.10;0.10;;;;;;;11.79;36.67;101085.59;5030151;28;20068;-70
2022/04/02 10:09:07;;;;;;;0.10;0.10;;;;;;;11.93;37.46;101082.44;5024400;28;20042;-69
2022/04/02 10:11:34;;;;;;;;;;;;;;;11.55;36.35;101085.00;5025122;28;20049;-69
2022/04/02 10:14:03;;;;;;;0.10;0.10;;;;;;;11.48;37.21;101093.72;5023835;28;20007;-68
2022/04/02 10:16:30;;;;;;;0.10;0.10;;;;;;;11.52;36.40;101083.00;5027255;28;20151;-70
2022/04/02 10:19:00;;;;;;;0.10;0.10;;;;;;;11.38;36.82;101088.06;5032850;28;20036;-70
2022/04/02 10:21:32;;;;;;;0.10;0.10;;;;;;;11.51;36.83;101089.53;5021829;28;20152;-70
2022/04/02 10:24:07;;;;;;;0.10;0.10;;;;;;;11.51;36.48;101084.16;5021626;28;20566;-70
2022/04/02 10:26:40;;;;;;;0.13;0.13;;;;;;;11.68;36.19;101084.59;5003612;28;20045;-70
2022/04/02 10:29:23;;;;;;;0.10;0.10;;;;;;;11.87;36.79;101094.63;4997732;28;20167;-67
2022/04/02 10:32:15;;;;;;;0.10;0.10;;;;;;;11.70;37.13;101084.22;5017141;28;20493;-69
2022/04/02 10:34:55;;;;;;;0.03;0.03;;;;;;;11.98;36.40;101078.69;5012041;28;20037;-70
2022/04/02 10:37:27;;;;;;;0.10;0.10;;;;;;;12.31;35.33;101093.25;5000158;28;20061;-69
2022/04/02 10:39:53;;;;;;;0.10;0.10;;;;;;;12.31;35.03;101087.84;5030279;28;20029;-67
2022/04/02 10:42:22;;;;;;;0.10;0.10;;;;;;;12.43;34.93;101079.63;5030233;28;20068;-70
2022/04/02 10:44:59;;;;;;;0.10;0.10;;;;;;;12.31;35.20;101089.78;5021810;28;20037;-70
2022/04/02 10:47:28;;;;;;;0.10;0.10;;;;;;;12.63;35.68;101089.28;5021829;28;20048;-70
2022/04/02 10:50:01;;;;;;;0.10;0.10;;;;;;;12.89;35.46;101082.41;5031767;28;20482;-69
2022/04/02 10:52:28;;;;;;;0.00;0.00;;;;;;;12.83;34.64;101081.13;5004202;28;20572;-70
2022/04/02 10:54:53;;;;;;;0.00;0.00;;;;;;;12.84;34.02;101094.28;5019746;28;20049;-68
2022/04/02 10:57:19;;;;;;;0.00;0.00;;;;;;;12.79;33.87;101091.09;5023060;28;20182;-69
2022/04/02 10:59:47;;;;;;;0.10;0.10;;;;;;;12.80;35.95;101084.53;5026639;28;20760;-71
2022/04/02 11:02:23;;;;;;;0.00;0.00;;;;;;;12.66;33.48;101091.25;5027547;28;20044;-71
2022/04/02 11:05:03;;;;;;;0.05;0.05;;;;;;;12.56;35.33;101082.97;5001605;28;20250;-70
2022/04/02 11:07:43;;;;;;;0.00;0.00;;;;;;;12.38;35.12;101093.41;5018128;28;20690;-70
2022/04/02 11:10:13;;;;;;;0.03;0.03;;;;;;;12.66;34.65;101083.16;5004911;28;20890;-70
2022/04/02 11:12:42;;;;;;;0.00;0.00;;;;;;;12.79;33.78;101089.19;5010900;28;20034;-70
2022/04/02 11:15:21;;;;;;;0.10;0.10;;;;;;;12.66;34.25;101096.66;5027747;28;20040;-71
2022/04/02 11:17:52;;;;;;;0.10;0.10;;;;;;;12.97;34.02;101087.56;5030462;28;20029;-70
2022/04/02 11:20:21;;;;;;;0.00;0.00;;;;;;;12.94;32.97;101084.81;5029056;28;20111;-71
2022/04/02 11:22:57;;;;;;;0.00;0.00;;;;;;;13.18;32.84;101089.91;5019991;28;20095;-69
2022/04/02 11:25:33;;;;;;;0.22;0.20;;;;;;;13.17;31.41;101080.22;5024403;28;20041;-70
2022/04/02 11:28:12;;;;;;;0.10;0.10;;;;;;;13.44;31.27;101100.75;4997431;28;20135;-69
2022/04/02 11:30:40;;;;;;;0.00;0.00;;;;;;;13.57;30.53;101089.38;5011265;28;20038;-71
2022/04/02 11:33:07;;;;;;;2.83;0.20;;;;;;;13.52;31.21;101099.72;5017717;28;20125;-70
2022/04/02 11:35:43;;;;;;;0.00;0.00;;;;;;;12.41;31.30;101095.41;4980298;28;20038;-74
2022/04/02 11:38:29;;;;;;;0.00;0.00;;;;;;;12.43;32.04;101098.53;5015879;28;20041;-70
2022/04/02 11:41:01;;;;;;;0.35;0.30;;;;;;;12.88;32.43;101097.84;5006953;28;20587;-70
2022/04/02 11:43:35;;;;;;;0.30;0.30;;;;;;;12.89;31.17;101091.28;5013710;28;20056;-71
2022/04/02 11:46:04;;;;;;;0.25;0.25;;;;;;;13.18;31.87;101093.38;5013991;28;20386;-69
2022/04/02 11:48:39;;;;;;;0.30;0.30;;;;;;;13.10;34.98;101085.50;4994993;28;20490;-71
2022/04/02 11:51:36;;;;;;;0.00;0.00;;;;;;;13.36;34.24;101082.84;5015721;28;20068;-71
2022/04/02 11:54:10;;;;;;;0.00;0.00;;;;;;;13.45;34.25;101092.25;4986036;28;20064;-72
2022/04/02 11:56:40;;;;;;;0.10;0.10;;;;;;;13.18;32.38;101090.66;5030845;28;20048;-67